Latest Weather Observations for Tidbinbilla

IDN60801

Issued at 2:32 pm EST Thursday 28 May 2020 (issued every 10 minutes, with the page automatically refreshed every 10 minutes)

About weather observations | Map of weather stations | Latest weather observations for NSW | Other Formats
Station Details ID: 250069 Name: TIDBINBILLA (PCS) Lat: -35.46 Lon: 148.94 Height: 883.0 m

Portable automatic weather stations (PAWS) are operated by other organisations, such as Fire and Emergency Services, and are included here by agreement. Portable stations may be deployed to a location for a short period and their location may be subject to change without notice. Wind observations from these stations are provided from heights of either three (3) or ten (10) metres above ground level (AGL).

Data from the previous 72 hours. | See also: Recent months for locations in New South Wales
Date/Time
EST
Temp
°C
App
Temp
°C
Dew
Point
°C
Rel
Hum
%
Delta-T
°C
Wind Press
QNH
hPa
Press
MSL
hPa
Rain since
9am
mm
Dir  Spd
km/h
Gust
km/h
Spd
kts
Gust
kts
28/02:20pm 14.7 12.8 7.7 63 3.6 N 7 11 4 6 1022.3 - 0.0
28/02:10pm 14.2 12.1 8.2 67 3.1 N 9 15 5 8 1022.3 - 0.0
28/02:00pm 13.7 11.5 7.9 68 3.0 NNE 9 11 5 6 1022.3 - 0.0
28/01:50pm 13.1 11.0 8.4 73 2.5 N 9 13 5 7 1022.3 - 0.0
28/01:40pm 13.2 11.3 7.7 69 2.8 NNE 7 13 4 7 1022.3 - 0.0
28/01:30pm 12.4 10.5 7.7 73 2.4 NNE 7 9 4 5 1022.3 - 0.0
28/01:20pm 12.2 10.0 8.0 75 2.2 NE 9 11 5 6 1022.3 - 0.0
28/01:10pm 12.9 10.3 7.7 70 2.7 NNE 11 13 6 7 1022.4 - 0.0
28/01:00pm 14.2 11.7 8.4 68 3.1 N 11 13 6 7 1022.4 - 0.0
28/12:50pm 14.3 11.4 6.6 60 3.9 N 11 15 6 8 1022.5 - 0.0
28/12:40pm 14.4 11.7 5.5 55 4.4 N 9 11 5 6 1022.6 - 0.0
28/12:30pm 14.8 12.4 6.8 58 4.1 N 9 13 5 7 1022.7 - 0.0
28/12:20pm 15.5 13.4 6.8 56 4.5 N 7 11 4 6 1022.7 - 0.0
28/12:10pm 15.2 13.1 6.7 57 4.3 N 7 9 4 5 1022.9 - 0.0
28/12:00pm 14.9 13.3 8.9 67 3.2 NNW 7 9 4 5 1023.1 - 0.0
28/11:50am 14.7 13.0 7.5 62 3.7 NNW 6 7 3 4 1023.2 - 0.0
28/11:40am 14.1 12.4 7.5 64 3.4 NNW 6 7 3 4 1023.3 - 0.0
28/11:30am 13.8 12.1 8.5 70 2.8 NNW 7 11 4 6 1023.4 - 0.0
28/11:20am 13.6 11.9 7.7 67 3.0 NNW 6 9 3 5 1023.6 - 0.0
28/11:10am 13.6 13.0 8.8 73 2.5 NNW 2 6 1 3 1023.8 - 0.0
28/11:00am 13.1 12.5 9.1 77 2.1 N 2 6 1 3 1023.8 - 0.0
28/10:50am 12.6 11.7 9.1 79 1.8 NNW 4 6 2 3 1023.9 - 0.0
28/10:40am 12.3 11.3 8.8 79 1.8 NW 4 9 2 5 1023.9 - 0.0
28/10:30am 11.8 11.1 8.5 80 1.7 W 2 2 1 1 1024.0 - 0.0
28/10:20am 11.1 10.7 8.3 83 1.4 CALM 0 2 0 1 1024.1 - 0.0
28/10:10am 9.9 9.0 7.6 85 1.2 SW 2 6 1 3 1024.2 - 0.0
28/10:00am 9.1 8.2 7.6 90 0.8 SSW 2 4 1 2 1024.2 - 0.0
28/09:50am 8.2 7.2 7.2 93 0.5 SSW 2 4 1 2 1024.2 - 0.0
28/09:40am 8.1 7.0 7.1 93 0.5 WSW 2 4 1 2 1024.1 - 0.0
28/09:30am 7.9 6.8 6.9 93 0.5 SW 2 6 1 3 1024.1 - 0.0
28/09:20am 8.7 7.8 7.6 93 0.5 N 2 7 1 4 1024.0 - 0.0
28/09:10am 8.3 7.7 7.5 95 0.4 CALM 0 2 0 1 1024.0 - 0.0
28/09:00am 7.5 6.3 6.6 94 0.4 NE 2 4 1 2 1024.0 - 0.0
28/08:50am 8.0 6.9 7.1 94 0.4 SSW 2 4 1 2 1023.9 - 0.0
28/08:40am 7.4 6.3 6.8 96 0.3 SSW 2 4 1 2 1023.9 - 0.0
28/08:30am 6.4 5.1 5.8 96 0.3 SSW 2 4 1 2 1023.9 - 0.0
28/08:20am 6.1 4.7 5.3 95 0.4 S 2 6 1 3 1023.7 - 0.0
28/08:10am 6.0 4.5 5.1 94 0.4 S 2 4 1 2 1023.6 - 0.0
28/08:00am 6.3 4.1 5.2 93 0.5 N 6 7 3 4 1023.5 - 0.0
28/07:50am 7.5 5.5 7.1 97 0.2 NE 7 11 4 6 1023.4 - 0.0
28/07:40am 6.5 4.3 6.3 99 0.1 NE 7 9 4 5 1023.2 - 0.0
28/07:30am 6.1 4.8 5.9 99 0.1 SE 2 6 1 3 1023.1 - 0.0
28/07:20am 5.8 4.0 5.6 99 0.1 S 4 6 2 3 1023.0 - 0.0
28/07:10am 5.2 3.3 5.0 99 0.1 SW 4 6 2 3 1022.8 - 0.0
28/07:00am 4.7 2.7 4.5 99 0.1 S 4 6 2 3 1022.8 - 0.0
28/06:50am 4.9 2.9 4.6 98 0.1 S 4 6 2 3 1022.8 - 0.0
28/06:40am 5.5 4.0 5.1 97 0.2 S 2 6 1 3 1022.6 - 0.0
28/06:30am 6.1 4.8 5.9 99 0.1 NE 2 4 1 2 1022.5 - 0.0
28/06:20am 6.2 4.5 5.9 98 0.1 NNE 4 6 2 3 1022.4 - 0.0
28/06:10am 5.8 4.4 5.5 98 0.1 S 2 6 1 3 1022.4 - 0.0
28/06:00am 6.0 5.0 5.7 98 0.1 CALM 0 4 0 2 1022.2 - 0.0
28/05:50am 6.1 4.8 5.8 98 0.1 SW 2 4 1 2 1022.1 - 0.0
28/05:40am 6.1 4.7 5.6 97 0.2 NNW 2 4 1 2 1022.0 - 0.0
28/05:30am 6.4 4.3 5.8 96 0.3 NNW 6 7 3 4 1022.0 - 0.0
28/05:20am 6.4 4.7 6.0 97 0.2 ESE 4 7 2 4 1022.0 - 0.0
28/05:10am 6.4 5.5 5.9 97 0.2 CALM 0 2 0 1 1022.2 - 0.0
28/05:00am 6.5 5.2 6.1 97 0.2 W 2 4 1 2 1022.2 - 0.0
28/04:50am 6.4 5.1 5.8 96 0.3 S 2 4 1 2 1022.1 - 0.0
28/04:40am 6.5 5.2 5.9 96 0.3 NNE 2 4 1 2 1022.1 - 0.0
28/04:30am 6.7 5.4 6.1 96 0.3 WNW 2 6 1 3 1022.0 - 0.0
28/04:20am 6.7 5.4 6.1 96 0.3 S 2 4 1 2 1021.9 - 0.0
28/04:10am 6.6 5.3 5.9 95 0.3 SSW 2 4 1 2 1021.9 - 0.0
28/04:00am 6.8 5.5 6.0 95 0.4 WNW 2 4 1 2 1022.0 - 0.0
28/03:50am 6.9 5.2 6.1 95 0.4 S 4 4 2 2 1021.9 - 0.0
28/03:40am 7.1 5.9 6.3 95 0.4 ENE 2 4 1 2 1021.8 - 0.0
28/03:30am 7.2 6.4 6.4 95 0.4 CALM 0 4 0 2 1021.9 - 0.0
28/03:20am 7.2 6.4 6.4 95 0.4 CALM 0 0 0 0 1021.9 - 0.0
28/03:10am 7.2 6.0 6.3 94 0.4 NE 2 4 1 2 1022.1 - 0.0
28/03:00am 7.3 5.7 6.3 93 0.5 N 4 4 2 2 1022.2 - 0.0
28/02:50am 7.7 6.5 6.5 92 0.6 N 2 4 1 2 1022.1 - 0.0
28/02:40am 7.8 6.9 6.2 90 0.8 CALM 0 0 0 0 1022.0 - 0.0
28/02:30am 7.8 7.0 6.3 90 0.7 CALM 0 2 0 1 1022.1 - 0.0
28/02:20am 8.0 7.1 6.1 88 0.9 CALM 0 4 0 2 1022.1 - 0.0
28/02:10am 8.1 7.3 6.3 88 0.9 CALM 0 4 0 2 1022.1 - 0.0
28/02:00am 8.3 7.5 6.4 88 0.9 CALM 0 2 0 1 1022.1 - 0.0
28/01:50am 8.4 7.6 6.4 87 1.0 CALM 0 0 0 0 1022.1 - 0.0
28/01:40am 8.3 7.5 6.4 88 0.9 CALM 0 0 0 0 1022.2 - 0.0
28/01:30am 8.2 7.4 6.5 89 0.8 CALM 0 0 0 0 1022.3 - 0.0
28/01:20am 8.1 7.3 6.5 90 0.8 CALM 0 0 0 0 1022.2 - 0.0
28/01:10am 8.1 7.3 6.6 90 0.7 CALM 0 0 0 0 1022.2 - 0.0
28/01:00am 8.3 7.5 6.6 89 0.8 CALM 0 4 0 2 1022.2 - 0.0
28/12:50am 8.4 7.6 6.6 88 0.9 CALM 0 2 0 1 1022.2 - 0.0
28/12:40am 8.4 6.8 6.5 88 0.9 SSW 4 4 2 2 1022.2 - 0.0
28/12:30am 8.2 6.6 6.4 88 0.9 S 4 4 2 2 1022.2 - 0.0
28/12:20am 8.1 6.9 6.5 90 0.8 SW 2 4 1 2 1022.2 - 0.0
28/12:10am 8.1 6.5 6.5 90 0.8 SSW 4 6 2 3 1022.2 - 0.0
28/12:00am 7.8 6.2 6.5 91 0.6 S 4 6 2 3 1022.2 - 0.0
 
Date/Time
EST
Temp
°C
App
Temp
°C
Dew
Point
°C
Rel
Hum
%
Delta-T
°C
Wind Press
QNH
hPa
Press
MSL
hPa
Rain since
9am
mm
Dir  Spd
km/h
Gust
km/h
Spd
kts
Gust
kts
27/11:50pm 7.6 6.8 6.4 92 0.6 CALM 0 2 0 1 1022.2 - 0.0
27/11:40pm 7.5 5.5 6.4 93 0.5 SSW 6 7 3 4 1022.3 - 0.0
27/11:30pm 7.2 5.0 6.4 95 0.4 S 7 9 4 5 1022.1 - 0.0
27/11:20pm 7.6 6.4 6.5 93 0.5 SW 2 6 1 3 1022.2 - 0.0
27/11:10pm 7.6 6.4 6.6 93 0.5 E 2 4 1 2 1022.1 - 0.0
27/11:00pm 8.0 6.9 6.8 92 0.6 N 2 6 1 3 1022.2 - 0.0
27/10:50pm 8.4 7.6 6.7 89 0.8 CALM 0 4 0 2 1022.1 - 0.0
27/10:40pm 8.6 7.1 6.6 87 1.0 NNE 4 6 2 3 1022.0 - 0.0
27/10:30pm 8.6 7.9 6.8 88 0.9 CALM 0 4 0 2 1022.0 - 0.0
27/10:20pm 8.5 7.0 6.6 88 0.9 SW 4 7 2 4 1022.0 - 0.0
27/10:10pm 8.4 7.3 6.9 90 0.7 SSW 2 7 1 4 1022.0 - 0.0
27/10:00pm 8.5 7.9 7.2 91 0.6 CALM 0 0 0 0 1022.3 - 0.0
27/09:50pm 8.6 7.6 7.3 91 0.6 S 2 4 1 2 1022.3 - 0.0
27/09:40pm 8.5 7.2 7.5 93 0.5 S 4 4 2 2 1022.3 - 0.0
27/09:30pm 8.2 7.6 7.3 94 0.4 CALM 0 4 0 2 1022.4 - 0.0
27/09:20pm 8.1 7.0 7.1 93 0.5 SSE 2 4 1 2 1022.5 - 0.0
27/09:10pm 8.3 7.7 7.4 94 0.4 CALM 0 2 0 1 1022.6 - 0.0
27/09:00pm 8.4 7.8 7.4 93 0.5 CALM 0 0 0 0 1022.4 - 0.0
27/08:50pm 8.4 7.8 7.3 93 0.5 CALM 0 2 0 1 1022.5 - 0.0
27/08:40pm 8.5 7.9 7.4 93 0.5 CALM 0 4 0 2 1022.5 - 0.0
27/08:30pm 8.5 7.9 7.3 92 0.6 CALM 0 0 0 0 1022.5 - 0.0
27/08:20pm 8.6 7.2 7.4 92 0.6 ENE 4 6 2 3 1022.6 - 0.0
27/08:10pm 8.5 7.5 7.3 92 0.6 E 2 4 1 2 1022.6 - 0.0
27/08:00pm 8.5 7.5 7.4 93 0.5 S 2 4 1 2 1022.7 - 0.0
27/07:50pm 8.7 8.1 7.4 91 0.6 CALM 0 4 0 2 1022.7 - 0.0
27/07:40pm 8.6 8.0 7.5 93 0.5 CALM 0 2 0 1 1022.5 - 0.0
27/07:30pm 8.6 7.6 7.4 92 0.6 S 2 4 1 2 1022.5 - 0.0
27/07:20pm 8.7 8.1 7.5 92 0.6 CALM 0 2 0 1 1022.5 - 0.0
27/07:10pm 8.7 7.7 7.5 92 0.6 S 2 4 1 2 1022.4 - 0.0
27/07:00pm 8.6 7.3 7.5 93 0.5 S 4 6 2 3 1022.2 - 0.0
27/06:50pm 8.6 6.9 7.5 93 0.5 S 6 6 3 3 1022.2 - 0.0
27/06:40pm 8.7 7.8 7.6 93 0.5 S 2 4 1 2 1022.3 - 0.0
27/06:30pm 8.8 7.8 7.5 91 0.6 S 2 2 1 1 1022.1 - 0.0
27/06:20pm 8.8 7.5 7.5 91 0.6 SSE 4 4 2 2 1022.1 - 0.0
27/06:10pm 9.0 8.0 7.4 90 0.8 SW 2 4 1 2 1022.0 - 0.0
27/06:00pm 9.0 8.1 7.6 91 0.7 N 2 4 1 2 1021.9 - 0.0
27/05:50pm 9.1 8.1 7.4 89 0.8 S 2 2 1 1 1021.8 - 0.0
27/05:40pm 9.2 8.3 7.7 90 0.8 SSW 2 4 1 2 1021.8 - 0.0
27/05:30pm 9.2 8.3 7.6 90 0.8 SSE 2 4 1 2 1021.8 - 0.0
27/05:20pm 9.4 8.4 7.5 88 1.0 ENE 2 4 1 2 1021.9 - 0.0
27/05:10pm 9.5 8.5 7.5 87 1.0 ENE 2 4 1 2 1021.8 - 0.0
27/05:00pm 9.7 8.8 7.7 87 1.0 N 2 4 1 2 1021.8 - 0.0
27/04:50pm 10.0 8.7 7.5 84 1.3 NE 4 7 2 4 1021.8 - 0.0
27/04:40pm 10.2 8.3 7.5 83 1.4 ENE 7 9 4 5 1021.7 - 0.0
27/04:30pm 10.3 8.4 7.5 83 1.4 ENE 7 9 4 5 1021.6 - 0.0
27/04:20pm 10.4 8.2 7.7 83 1.4 ENE 9 13 5 7 1021.6 - 0.0
27/04:10pm 10.8 8.2 7.9 82 1.5 NE 11 13 6 7 1021.5 - 0.0
27/04:00pm 11.2 8.7 8.1 81 1.6 NE 11 13 6 7 1021.5 - 0.0
27/03:50pm 11.8 9.7 8.2 78 1.9 NE 9 15 5 8 1021.4 - 0.0
27/03:40pm 11.3 8.7 7.8 79 1.8 NE 11 11 6 6 1021.3 - 0.0
27/03:30pm 11.7 9.2 8.2 79 1.8 NE 11 13 6 7 1021.4 - 0.0
27/03:20pm 11.7 9.5 7.9 77 1.9 NE 9 11 5 6 1021.4 - 0.0
27/03:10pm 11.7 9.6 8.1 78 1.9 NE 9 11 5 6 1021.4 - 0.0
27/03:00pm 11.6 9.7 7.7 77 2.0 NE 7 9 4 5 1021.4 - 0.0
27/02:50pm 11.5 9.6 7.7 77 1.9 NE 7 9 4 5 1021.5 - 0.0
27/02:40pm 11.4 9.1 7.6 77 1.9 NNE 9 13 5 7 1021.5 - 0.0
27/02:30pm 11.5 8.1 7.8 78 1.9 N 15 19 8 10 1021.6 - 0.0
27/02:20pm 11.9 8.6 7.9 76 2.1 NNE 15 19 8 10 1021.6 - 0.0
27/02:10pm 12.0 9.0 7.7 75 2.2 NNE 13 15 7 8 1021.5 - 0.0
27/02:00pm 12.6 10.4 7.9 73 2.4 N 9 11 5 6 1021.6 - 0.0
27/01:50pm 12.6 10.0 7.6 71 2.6 NNE 11 13 6 7 1021.7 - 0.0
27/01:40pm 12.9 9.9 7.7 70 2.7 N 13 17 7 9 1022.0 - 0.0
27/01:30pm 13.2 10.5 7.2 67 3.1 N 11 15 6 8 1022.1 - 0.0
27/01:20pm 12.9 11.0 7.5 69 2.8 N 7 11 4 6 1022.2 - 0.0
27/01:10pm 13.2 10.9 7.6 69 2.9 N 9 11 5 6 1022.3 - 0.0
27/01:00pm 12.6 10.6 7.3 70 2.7 N 7 13 4 7 1022.4 - 0.0
27/12:50pm 11.6 9.3 7.4 75 2.1 NNE 9 11 5 6 1022.6 - 0.0
27/12:40pm 11.7 9.7 7.3 74 2.2 NNE 7 9 4 5 1022.6 - 0.0
27/12:30pm 12.2 10.2 7.3 72 2.5 N 7 9 4 5 1022.8 - 0.0
27/12:20pm 12.4 10.5 7.6 72 2.5 NNW 7 11 4 6 1023.0 - 0.0
27/12:10pm 12.0 10.2 7.0 71 2.5 N 6 9 3 5 1023.2 - 0.0
27/12:00pm 12.2 10.3 6.8 69 2.7 N 6 11 3 6 1023.3 - 0.0
27/11:50am 11.1 9.6 7.0 76 2.1 N 4 6 2 3 1023.5 - 0.0
27/11:40am 11.0 9.1 6.9 76 2.0 N 6 9 3 5 1023.7 - 0.0
27/11:30am 11.4 9.5 6.7 73 2.3 N 6 9 3 5 1023.8 - 0.0
27/11:10am 11.7 9.8 6.6 71 2.5 NNE 6 9 3 5 1024.2 - 0.0
27/10:50am 10.5 9.0 5.2 70 2.5 NNE 2 6 1 3 1024.7 - 0.0
27/10:40am 10.3 8.9 5.4 71 2.4 NNW 2 4 1 2 1024.8 - 0.0
27/10:30am 10.4 8.3 5.6 72 2.3 NNW 6 7 3 4 1024.9 - 0.0
27/10:20am 10.6 8.3 5.7 72 2.4 N 7 9 4 5 1024.9 - 0.0
27/10:10am 10.0 7.9 5.7 74 2.1 N 6 7 3 4 1024.8 - 0.0
27/10:00am 10.0 7.7 5.8 75 2.0 N 7 7 4 4 1024.7 - 0.0
27/09:50am 10.0 8.0 6.1 77 1.9 N 6 7 3 4 1024.8 - 0.0
27/09:40am 10.2 8.5 5.7 73 2.2 N 4 6 2 3 1024.8 - 0.0
27/09:30am 10.6 9.3 5.9 73 2.3 WNW 2 4 1 2 1024.8 - 0.0
27/09:20am 10.2 9.1 5.2 71 2.4 CALM 0 4 0 2 1024.9 - 0.0
27/09:10am 9.5 8.2 5.8 78 1.8 WSW 2 2 1 1 1024.8 - 0.0
27/09:00am 10.0 8.6 5.3 72 2.3 WSW 2 4 1 2 1024.7 - 0.0
27/08:50am 10.1 8.9 4.8 69 2.5 CALM 0 2 0 1 1024.6 - 0.0
27/08:40am 9.8 8.7 5.3 73 2.2 CALM 0 2 0 1 1024.7 - 0.0
27/08:20am 7.9 6.5 3.8 75 1.9 CALM 0 2 0 1 1024.7 - 0.0
27/08:10am 7.0 5.3 3.9 81 1.4 SSE 2 2 1 1 1024.6 - 0.0
27/08:00am 7.2 5.8 3.8 79 1.5 CALM 0 2 0 1 1024.7 - 0.0
27/07:50am 6.9 5.5 3.6 79 1.5 CALM 0 4 0 2 1024.7 - 0.0
27/07:40am 6.9 5.1 3.6 79 1.5 W 2 4 1 2 1024.6 - 0.0
27/07:30am 6.8 5.0 3.4 79 1.5 SW 2 4 1 2 1024.6 - 0.0
27/07:20am 6.7 4.9 3.4 79 1.5 N 2 6 1 3 1024.5 - 0.0
27/07:10am 6.5 4.0 3.7 82 1.3 NE 6 6 3 3 1024.4 - 0.0
27/07:00am 7.5 5.8 3.8 77 1.7 NNW 2 4 1 2 1024.3 - 0.0
27/06:50am 7.8 5.6 3.4 74 2.0 S 4 6 2 3 1024.2 - 0.0
27/06:40am 7.8 5.2 3.3 73 2.0 S 6 7 3 4 1024.3 - 0.0
27/06:30am 7.8 5.2 3.3 73 2.0 S 6 7 3 4 1024.4 - 0.0
27/06:20am 7.7 5.5 3.4 74 1.9 SSW 4 7 2 4 1024.3 - 0.0
27/06:10am 7.4 5.6 3.3 75 1.8 SSW 2 4 1 2 1024.3 - 0.0
27/06:00am 7.5 5.7 3.4 75 1.8 SW 2 4 1 2 1024.2 - 0.0
27/05:50am 7.7 6.3 3.5 75 1.9 CALM 0 2 0 1 1024.2 - 0.0
27/05:40am 8.0 5.8 3.4 73 2.1 S 4 6 2 3 1024.2 - 0.0
27/05:30am 8.1 5.5 3.3 72 2.2 S 6 7 3 4 1024.2 - 0.0
27/05:20am 8.0 5.4 3.2 72 2.2 S 6 7 3 4 1024.3 - 0.0
27/05:10am 7.9 5.3 3.1 72 2.1 S 6 6 3 3 1024.3 - 0.0
27/05:00am 7.7 5.4 3.0 72 2.1 S 4 6 2 3 1024.3 - 0.0
27/04:50am 7.7 5.4 3.0 72 2.1 S 4 4 2 2 1024.4 - 0.0
27/04:40am 7.7 5.1 3.0 72 2.1 SSW 6 6 3 3 1024.4 - 0.0
27/04:30am 7.8 5.1 2.9 71 2.2 S 6 6 3 3 1024.4 - 0.0
27/04:20am 7.6 5.3 2.8 71 2.1 S 4 6 2 3 1024.4 - 0.0
27/04:10am 7.2 4.9 2.9 74 1.9 S 4 6 2 3 1024.5 - 0.0
27/04:00am 7.4 5.9 3.1 74 1.9 CALM 0 0 0 0 1024.7 - 0.0
27/03:50am 7.9 5.7 3.1 72 2.1 NNE 4 7 2 4 1024.6 - 0.0
27/03:40am 8.1 5.8 2.9 70 2.3 NE 4 4 2 2 1024.5 - 0.0
27/03:30am 8.1 5.5 3.0 70 2.3 NE 6 6 3 3 1024.5 - 0.0
27/03:20am 8.3 5.7 3.1 70 2.3 NE 6 7 3 4 1024.7 - 0.0
27/03:10am 8.2 5.9 2.9 69 2.4 SE 4 6 2 3 1024.7 - 0.0
27/03:00am 8.1 5.4 2.8 69 2.4 S 6 7 3 4 1024.8 - 0.0
27/02:50am 8.2 5.5 2.9 69 2.4 SSW 6 7 3 4 1025.0 - 0.0
27/02:40am 8.3 6.8 2.8 68 2.5 CALM 0 2 0 1 1025.0 - 0.0
27/02:30am 8.2 6.3 2.9 69 2.4 SW 2 4 1 2 1025.1 - 0.0
27/02:20am 8.2 6.3 2.9 69 2.4 E 2 4 1 2 1025.1 - 0.0
27/02:10am 8.4 5.8 3.4 71 2.3 ESE 6 7 3 4 1025.3 - 0.0
27/02:00am 8.4 5.8 3.0 69 2.4 SSE 6 7 3 4 1025.4 - 0.0
27/01:50am 8.4 6.1 2.9 68 2.5 SSW 4 6 2 3 1025.5 - 0.0
27/01:40am 8.8 6.5 2.8 66 2.7 ESE 4 6 2 3 1025.6 - 0.0
27/01:30am 8.9 6.3 3.2 67 2.6 E 6 7 3 4 1025.6 - 0.0
27/01:20am 8.5 5.8 2.6 66 2.6 - 6 7 3 4 1025.8 - 0.0
27/01:10am 8.3 5.6 2.5 67 2.6 SE 6 7 3 4 1025.8 - 0.0
27/01:00am 8.4 5.7 2.9 68 2.5 S 6 7 3 4 1026.0 - 0.0
27/12:50am 8.3 5.7 3.1 70 2.3 S 6 7 3 4 1026.1 - 0.0
27/12:40am 8.2 5.5 3.5 72 2.1 S 7 7 4 4 1026.1 - 0.0
27/12:30am 8.4 5.7 3.7 72 2.1 SSW 7 9 4 5 1026.2 - 0.0
27/12:20am 8.7 6.2 3.6 70 2.3 S 6 7 3 4 1026.3 - 0.0
27/12:10am 8.6 6.0 3.0 68 2.5 SE 6 7 3 4 1026.3 - 0.0
27/12:00am 8.5 5.3 3.2 69 2.4 SE 9 11 5 6 1026.3 - 0.0
 
Date/Time
EST
Temp
°C
App
Temp
°C
Dew
Point
°C
Rel
Hum
%
Delta-T
°C
Wind Press
QNH
hPa
Press
MSL
hPa
Rain since
9am
mm
Dir  Spd
km/h
Gust
km/h
Spd
kts
Gust
kts
26/11:50pm 8.3 5.2 3.4 71 2.2 SE 9 11 5 6 1026.4 - 0.0
26/11:40pm 8.2 5.2 3.9 74 2.0 SSE 9 11 5 6 1026.4 - 0.0
26/11:30pm 8.3 6.0 4.7 78 1.7 SE 6 7 3 4 1026.5 - 0.0
26/11:20pm 8.7 6.8 4.7 76 1.9 SE 4 7 2 4 1026.6 - 0.0
26/11:10pm 8.9 6.9 4.4 73 2.1 ESE 4 4 2 2 1026.7 - 0.0
26/11:00pm 8.9 6.5 4.4 73 2.1 E 6 7 3 4 1026.8 - 0.0
26/10:50pm 9.0 6.5 4.5 73 2.1 E 7 9 4 5 1026.7 - 0.0
26/10:40pm 9.0 6.3 3.9 70 2.3 E 7 13 4 7 1026.7 - 0.0
26/10:30pm 9.1 7.1 4.6 73 2.1 E 4 9 2 5 1026.6 - 0.0
26/10:20pm 9.2 6.7 4.5 72 2.2 E 7 9 4 5 1026.6 - 0.0
26/10:10pm 9.3 6.4 4.7 73 2.2 NE 9 13 5 7 1026.7 - 0.0
26/10:00pm 9.4 6.4 4.1 69 2.5 NE 9 15 5 8 1026.8 - 0.0
26/09:50pm 9.3 7.3 4.5 72 2.2 E 4 7 2 4 1026.8 - 0.0
26/09:40pm 9.2 6.3 4.5 72 2.2 SE 9 13 5 7 1026.7 - 0.0
26/09:30pm 9.0 5.7 4.8 75 2.0 SE 11 15 6 8 1026.6 - 0.0
26/09:20pm 8.9 6.5 5.1 77 1.8 SE 7 9 4 5 1026.7 - 0.0
26/09:10pm 9.0 7.1 5.1 76 1.8 SSE 4 9 2 5 1026.7 - 0.0
26/09:00pm 9.2 7.8 5.3 76 1.9 E 2 6 1 3 1026.6 - 0.0
26/08:50pm 9.3 6.9 5.4 76 1.9 NE 7 13 4 7 1026.7 - 0.0
26/08:40pm 9.4 6.6 5.3 75 2.0 NE 9 11 5 6 1026.6 - 0.0
26/08:30pm 9.3 7.1 5.2 75 1.9 NE 6 9 3 5 1026.6 - 0.0
26/08:20pm 9.0 6.8 5.3 77 1.8 NE 6 7 3 4 1026.6 - 0.0
26/08:10pm 9.2 6.5 5.5 78 1.8 NE 9 15 5 8 1026.5 - 0.0
26/08:00pm 9.2 7.0 5.2 76 1.9 E 6 7 3 4 1026.4 - 0.0
26/07:50pm 9.1 7.7 5.3 77 1.8 ESE 2 4 1 2 1026.4 - 0.0
26/07:40pm 9.1 8.1 5.6 79 1.7 CALM 0 2 0 1 1026.2 - 0.0
26/07:30pm 9.3 8.0 6.0 80 1.6 SE 2 4 1 2 1026.1 - 0.0
26/07:20pm 9.3 8.0 5.8 79 1.7 N 2 6 1 3 1026.2 - 0.0
26/07:10pm 9.3 8.0 5.8 79 1.7 E 2 6 1 3 1026.2 - 0.0
26/07:00pm 9.3 8.0 5.9 79 1.6 E 2 4 1 2 1026.3 - 0.0
26/06:50pm 9.4 7.8 6.2 80 1.6 E 4 4 2 2 1026.3 - 0.0
26/06:40pm 9.5 7.3 6.1 79 1.7 NE 7 9 4 5 1026.1 - 0.0
26/06:30pm 9.6 7.0 6.0 78 1.7 NE 9 11 5 6 1025.9 - 0.0
26/06:20pm 9.8 7.1 5.5 74 2.1 ENE 9 13 5 7 1025.8 - 0.0
26/06:10pm 9.7 6.4 4.4 69 2.5 ENE 11 17 6 9 1025.7 - 0.0
26/06:00pm 10.0 7.7 4.7 69 2.5 NNE 6 17 3 9 1025.7 - 0.0
26/05:50pm 10.1 8.0 3.7 64 3.0 SE 4 11 2 6 1025.6 - 0.0
26/05:40pm 10.2 8.6 4.3 67 2.8 SSE 2 4 1 2 1025.5 - 0.0
26/05:30pm 10.2 8.2 4.2 66 2.8 ESE 4 6 2 3 1025.4 - 0.0
26/05:20pm 10.2 8.3 5.1 70 2.4 SSE 4 9 2 5 1025.4 - 0.0
26/05:10pm 10.4 8.2 5.4 71 2.4 SE 6 9 3 5 1025.4 - 0.0
26/05:00pm 10.5 8.8 6.0 74 2.2 E 4 9 2 5 1025.4 - 0.0
26/04:50pm 10.6 7.6 6.1 74 2.2 NNE 11 17 6 9 1025.3 - 0.0
26/04:40pm 10.6 7.6 5.9 73 2.3 ENE 11 13 6 7 1025.2 - 0.0
26/04:30pm 10.8 7.4 5.7 71 2.5 NE 13 17 7 9 1025.2 - 0.0
26/04:20pm 11.1 7.4 6.1 71 2.5 NE 15 19 8 10 1025.2 - 0.0
26/04:10pm 11.6 7.9 6.5 71 2.5 NE 15 19 8 10 1025.1 - 0.0
26/04:00pm 11.7 8.6 7.1 73 2.3 NE 13 19 7 10 1025.0 - 0.0
26/03:50pm 11.8 8.7 7.4 74 2.2 NE 13 19 7 10 1025.0 - 0.0
26/03:40pm 12.0 8.1 7.2 72 2.4 NE 17 20 9 11 1024.9 - 0.0
26/03:30pm 12.5 8.6 7.0 69 2.8 NNE 17 20 9 11 1024.9 - 0.0
26/03:20pm 12.2 8.7 7.2 71 2.5 NE 15 19 8 10 1024.7 - 0.0
26/03:10pm 12.2 8.3 7.0 70 2.6 NE 17 19 9 10 1024.6 - 0.0
26/03:00pm 12.3 8.4 6.9 69 2.7 NE 17 26 9 14 1024.6 - 0.0
26/02:50pm 12.5 9.4 7.2 70 2.7 NE 13 17 7 9 1024.7 - 0.0
26/02:40pm 12.9 9.8 7.1 68 2.9 NE 13 17 7 9 1024.8 - 0.0
26/02:30pm 12.9 9.3 6.7 66 3.1 NNE 15 22 8 12 1024.9 - 0.0
26/02:20pm 12.5 9.2 6.6 67 3.0 NE 13 15 7 8 1024.8 - 0.0
26/02:10pm 12.9 10.5 7.0 67 3.0 NNE 9 15 5 8 1024.9 - 0.0
26/02:00pm 13.5 11.5 7.0 65 3.3 NE 7 13 4 7 1025.0 - 0.0
26/01:50pm 13.4 10.8 6.0 61 3.7 E 9 19 5 10 1024.8 - 0.0
26/01:40pm 13.2 11.1 6.6 64 3.3 NNE 7 11 4 6 1025.0 - 0.0
26/01:30pm 12.8 9.9 6.5 65 3.2 E 11 19 6 10 1024.9 - 0.0
26/01:20pm 13.2 11.1 6.8 65 3.2 E 7 9 4 5 1025.1 - 0.0
26/01:10pm 13.8 11.4 6.9 63 3.5 E 9 13 5 7 1025.2 - 0.0
26/01:00pm 13.4 11.0 6.9 65 3.3 NE 9 17 5 9 1025.3 - 0.0
26/12:50pm 13.6 10.8 6.9 64 3.4 E 11 19 6 10 1025.3 - 0.0
26/12:40pm 13.8 10.5 6.5 61 3.7 ESE 13 19 7 10 1025.6 - 0.0
26/12:30pm 14.3 11.9 6.8 60 3.8 E 9 17 5 9 1025.9 - 0.0
26/12:20pm 14.0 11.6 6.8 62 3.7 ESE 9 15 5 8 1026.1 - 0.0
26/12:10pm 13.8 11.4 6.9 63 3.5 NNE 9 15 5 8 1026.2 - 0.0
26/12:00pm 14.0 12.2 7.3 64 3.4 N 6 11 3 6 1026.2 - 0.0
26/11:50am 14.2 11.8 7.0 62 3.7 E 9 17 5 9 1026.3 - 0.0
26/11:40am 14.4 11.6 6.9 60 3.8 NE 11 19 6 10 1026.5 - 0.0
26/11:30am 14.7 12.9 7.3 61 3.8 NNW 6 11 3 6 1026.6 - 0.0
26/11:20am 14.9 12.7 8.0 63 3.6 N 9 15 5 8 1026.8 - 0.0
26/11:10am 14.8 12.6 7.7 62 3.7 NE 9 13 5 7 1026.9 - 0.0
26/11:00am 14.6 12.5 8.2 65 3.4 ENE 9 20 5 11 1027.1 - 0.0
26/10:50am 14.5 12.6 6.9 60 3.9 E 6 7 3 4 1027.1 - 0.0
26/10:40am 14.2 11.8 7.0 62 3.7 E 9 15 5 8 1027.1 - 0.0
26/10:30am 14.3 12.4 7.5 63 3.5 NNE 7 13 4 7 1027.2 - 0.0
26/10:20am 13.8 12.6 7.9 67 3.1 SW 4 7 2 4 1027.2 - 0.0
26/10:10am 13.0 11.1 7.7 70 2.7 NNW 7 9 4 5 1027.2 - 0.0
26/10:00am 13.0 11.4 8.1 72 2.5 WNW 6 9 3 5 1027.3 - 0.0
26/09:50am 13.2 11.6 8.1 71 2.7 WSW 6 9 3 5 1027.3 - 0.0
26/09:40am 12.9 11.1 7.0 67 3.0 SW 6 7 3 4 1027.2 - 0.0
26/09:30am 11.8 9.8 6.3 69 2.7 WSW 6 13 3 7 1027.2 - 0.0
26/09:20am 11.5 9.6 6.7 72 2.4 WSW 6 7 3 4 1027.1 - 0.0
26/09:10am 11.3 9.8 6.9 74 2.2 SSW 4 7 2 4 1027.1 - 0.0
26/09:00am 11.2 9.3 6.8 74 2.2 W 6 7 3 4 1027.0 - 0.0
26/08:50am 11.4 9.9 6.6 72 2.4 W 4 7 2 4 1026.8 - 0.0
26/08:40am 11.4 9.8 6.5 72 2.4 W 4 6 2 3 1026.8 - 0.0
26/08:30am 11.6 9.7 6.5 71 2.5 SSW 6 9 3 5 1026.5 - 0.0
26/08:20am 11.6 9.7 6.5 71 2.5 S 6 13 3 7 1026.4 - 0.0
26/08:10am 11.2 9.2 6.4 72 2.4 SSW 6 9 3 5 1026.4 - 0.0
26/08:00am 11.1 9.2 6.5 73 2.3 SSW 6 9 3 5 1026.4 - 0.0
26/07:50am 11.1 9.9 6.4 73 2.3 SW 2 6 1 3 1026.2 - 0.0
26/07:40am 10.2 8.0 6.0 75 2.0 S 7 15 4 8 1026.0 - 0.0
26/07:30am 9.8 6.4 5.9 77 1.9 SSW 13 19 7 10 1026.0 - 0.0
26/07:20am 9.6 7.6 6.1 79 1.7 S 6 11 3 6 1025.9 - 0.0
26/07:10am 9.3 6.6 5.6 78 1.8 SSW 9 15 5 8 1025.8 - 0.0
26/07:00am 8.9 6.8 5.7 80 1.5 S 6 7 3 4 1025.8 - 0.0
26/06:50am 8.9 7.1 5.6 80 1.6 S 4 7 2 4 1025.7 - 0.0
26/06:40am 8.8 6.6 5.5 80 1.6 S 6 9 3 5 1025.5 - 0.0
26/06:30am 8.7 6.0 5.5 80 1.5 S 9 17 5 9 1025.5 - 0.0
26/06:20am 8.5 6.3 5.5 81 1.4 SSW 6 11 3 6 1025.4 - 0.0
26/06:10am 8.6 6.8 5.3 80 1.6 SSW 4 6 2 3 1025.4 - 0.0
26/06:00am 8.4 6.2 5.2 80 1.5 S 6 7 3 4 1025.3 - 0.0
26/05:50am 8.1 5.9 5.3 82 1.3 S 6 7 3 4 1025.3 - 0.0
26/05:40am 8.3 6.5 5.2 81 1.5 S 4 7 2 4 1025.2 - 0.0
26/05:30am 8.4 6.9 5.2 80 1.5 S 2 4 1 2 1025.2 - 0.0
26/05:20am 8.6 6.7 5.0 78 1.7 SW 4 7 2 4 1025.2 - 0.0
26/05:10am 8.8 6.4 5.1 77 1.7 SSW 7 9 4 5 1025.0 - 0.0
26/05:00am 8.5 6.6 5.0 78 1.6 SSE 4 6 2 3 1025.1 - 0.0
26/04:50am 8.4 6.0 5.1 80 1.6 SSW 7 9 4 5 1025.1 - 0.0
26/04:40am 8.6 6.3 5.0 78 1.7 S 6 7 3 4 1025.1 - 0.0
26/04:30am 8.5 6.6 5.0 78 1.6 S 4 7 2 4 1025.1 - 0.0
26/04:20am 8.5 6.2 4.7 77 1.8 SSW 6 9 3 5 1025.1 - 0.0
26/04:10am 8.3 5.4 4.9 79 1.6 SSW 9 13 5 7 1025.1 - 0.0
26/04:00am 8.3 6.0 4.8 78 1.6 SSW 6 7 3 4 1025.1 - 0.0
26/03:50am 8.2 6.3 4.7 78 1.6 S 4 7 2 4 1025.0 - 0.0
26/03:40am 8.3 6.3 4.5 77 1.8 SSW 4 7 2 4 1025.0 - 0.0
26/03:30am 8.4 5.1 4.4 76 1.9 S 11 13 6 7 1025.0 - 0.0
26/03:20am 8.2 4.9 4.4 77 1.8 SSW 11 17 6 9 1025.1 - 0.0
26/03:10am 8.2 4.1 4.3 76 1.8 S 15 19 8 10 1025.1 - 0.0
26/03:00am 7.8 4.0 4.0 77 1.7 S 13 13 7 7 1025.3 - 0.0
26/02:50am 7.9 4.1 4.0 76 1.8 S 13 15 7 8 1025.4 - 0.0
26/02:40am 7.7 4.3 3.8 76 1.8 SSW 11 13 6 7 1025.4 - 0.0
26/02:30am 7.9 4.5 3.9 76 1.8 S 11 17 6 9 1025.4 - 0.0
26/02:20am 8.4 3.5 4.0 74 2.0 S 19 24 10 13 1025.3 - 0.0
26/02:10am 8.1 3.5 3.8 74 2.0 S 17 20 9 11 1025.2 - 0.0
26/02:00am 8.0 3.8 3.6 74 2.0 S 15 20 8 11 1025.3 - 0.0
26/01:50am 7.9 3.6 3.5 74 2.0 SSW 15 20 8 11 1025.4 - 0.0
26/01:40am 7.6 4.1 3.4 75 1.9 SSW 11 19 6 10 1025.3 - 0.0
26/01:30am 7.1 3.1 3.1 76 1.8 SSW 13 19 7 10 1025.4 - 0.0
26/01:20am 7.0 2.6 2.9 75 1.8 SSW 15 17 8 9 1025.4 - 0.0
26/01:10am 7.1 3.9 3.0 75 1.8 SSW 9 11 5 6 1025.6 - 0.0
26/01:00am 7.5 3.9 2.8 72 2.1 S 11 15 6 8 1025.6 - 0.0
26/12:50am 7.5 3.9 2.7 71 2.1 S 11 13 6 7 1025.7 - 0.0
26/12:40am 7.3 4.4 2.5 71 2.1 S 7 11 4 6 1025.6 - 0.0
26/12:30am 7.1 3.4 2.5 72 2.0 SW 11 17 6 9 1025.6 - 0.0
26/12:20am 6.8 3.5 2.3 73 2.0 SSW 9 15 5 8 1025.5 - 0.0
26/12:10am 6.9 3.9 2.0 71 2.1 SSW 7 11 4 6 1025.5 - 0.0
26/12:00am 6.6 3.6 1.9 72 2.0 SSW 7 11 4 6 1025.5 - 0.0
 
Date/Time
EST
Temp
°C
App
Temp
°C
Dew
Point
°C
Rel
Hum
%
Delta-T
°C
Wind Press
QNH
hPa
Press
MSL
hPa
Rain since
9am
mm
Dir  Spd
km/h
Gust
km/h
Spd
kts
Gust
kts
25/11:50pm 6.9 3.5 1.8 70 2.2 SSW 9 15 5 8 1025.5 - 0.0
25/11:40pm 6.9 2.7 1.8 70 2.2 SSW 13 15 7 8 1025.6 - 0.0
25/11:30pm 7.1 2.6 1.9 69 2.2 S 15 19 8 10 1025.8 - 0.0
25/11:20pm 7.2 2.7 1.9 69 2.3 S 15 19 8 10 1025.8 - 0.0
25/11:10pm 7.3 2.4 1.9 68 2.3 S 17 22 9 12 1025.8 - 0.0
25/11:00pm 7.2 2.3 2.0 69 2.3 S 17 22 9 12 1025.6 - 0.0
25/10:50pm 7.3 2.4 2.0 69 2.3 S 17 24 9 13 1025.5 - 0.0
25/10:40pm 7.3 2.5 2.4 71 2.1 SSW 17 24 9 13 1025.6 - 0.0
25/10:30pm 6.8 3.1 2.3 73 2.0 S 11 17 6 9 1025.6 - 0.0
25/10:20pm 7.0 4.3 2.8 74 1.9 S 6 9 3 5 1025.6 - 0.0
25/10:10pm 7.1 4.8 2.8 74 1.9 SSW 4 6 2 3 1025.6 - 0.0
25/10:00pm 7.4 5.1 2.9 73 2.0 SSW 4 7 2 4 1025.6 - 0.0
25/09:50pm 7.4 4.6 3.3 75 1.8 WSW 7 13 4 7 1025.7 - 0.0
25/09:40pm 7.5 4.0 3.4 75 1.8 SSW 11 17 6 9 1025.6 - 0.0
25/09:30pm 7.6 3.7 3.3 74 1.9 S 13 19 7 10 1025.5 - 0.0
25/09:20pm 7.5 4.0 3.4 75 1.8 S 11 15 6 8 1025.6 - 0.0
25/09:10pm 7.7 3.4 3.3 74 2.0 S 15 22 8 12 1025.5 - 0.0
25/09:00pm 7.8 2.6 3.3 73 2.0 SSW 20 24 11 13 1025.4 - 0.0
25/08:50pm 7.8 2.7 3.3 73 2.0 S 19 20 10 11 1025.3 - 0.0
25/08:40pm 7.8 3.1 3.3 73 2.0 S 17 20 9 11 1025.2 - 0.0
25/08:30pm 8.0 3.7 3.3 72 2.1 S 15 19 8 10 1025.2 - 0.0
25/08:20pm 8.1 3.4 3.2 71 2.2 S 17 22 9 12 1025.0 - 0.0
25/08:10pm 8.2 3.2 3.4 72 2.2 SSW 19 24 10 13 1024.7 - 0.0
25/08:00pm 8.3 3.1 3.8 73 2.1 SSW 20 24 11 13 1024.5 - 0.0
25/07:50pm 8.4 3.5 4.1 74 2.0 S 19 24 10 13 1024.5 - 0.0
25/07:40pm 8.5 4.0 4.3 75 1.9 S 17 20 9 11 1024.5 - 0.0
25/07:30pm 8.6 5.3 4.4 75 1.9 S 11 17 6 9 1024.4 - 0.0
25/07:20pm 8.8 5.8 4.3 73 2.1 S 9 15 5 8 1024.3 - 0.0
25/07:10pm 8.7 6.3 4.3 74 2.0 WSW 6 9 3 5 1024.3 - 0.0
25/07:00pm 8.8 6.8 4.2 73 2.1 S 4 9 2 5 1024.3 - 0.0
25/06:50pm 8.7 5.3 4.1 73 2.1 S 11 13 6 7 1024.1 - 0.0
25/06:40pm 8.8 4.7 4.4 74 2.0 S 15 26 8 14 1024.0 - 0.0
25/06:30pm 8.8 3.9 4.3 73 2.1 S 19 24 10 13 1023.8 - 0.0
25/06:20pm 8.9 4.0 4.3 73 2.1 S 19 24 10 13 1023.5 - 0.0
25/06:10pm 8.7 5.4 4.4 74 2.0 SSW 11 15 6 8 1023.3 - 0.0
25/06:00pm 9.0 5.7 4.4 73 2.1 SSW 11 19 6 10 1023.3 - 0.0
25/05:50pm 9.3 6.8 4.5 72 2.2 W 7 11 4 6 1023.3 - 0.0
25/05:40pm 9.3 6.9 4.2 70 2.4 S 6 9 3 5 1023.3 - 0.0
25/05:30pm 9.1 7.1 4.4 72 2.2 W 4 7 2 4 1023.2 - 0.0
25/05:20pm 9.1 7.1 4.4 72 2.2 SW 4 7 2 4 1023.0 - 0.0
25/05:10pm 9.4 7.4 4.4 71 2.3 WSW 4 7 2 4 1022.9 - 0.0
25/05:00pm 9.5 7.1 4.2 69 2.5 SW 6 7 3 4 1022.9 - 0.0
25/04:50pm 9.6 6.6 4.1 68 2.6 SSW 9 20 5 11 1022.9 - 0.0
25/04:40pm 9.8 7.2 4.3 68 2.6 SSW 7 13 4 7 1022.8 - 0.0
25/04:30pm 10.3 7.7 4.4 67 2.8 S 7 13 4 7 1022.7 - 0.0
25/04:20pm 10.4 7.8 4.1 65 2.9 S 7 20 4 11 1022.8 - 0.0
25/04:10pm 9.8 5.7 4.4 69 2.5 S 15 20 8 11 1022.8 - 0.0
25/04:00pm 9.8 5.4 4.5 69 2.5 S 17 20 9 11 1022.8 - 0.0
25/03:50pm 9.9 5.5 4.5 69 2.5 SSW 17 24 9 13 1022.8 - 0.0
25/03:40pm 10.2 5.7 4.4 67 2.7 S 17 22 9 12 1022.9 - 0.0
25/03:30pm 10.3 6.6 4.5 67 2.7 SSW 13 20 7 11 1022.9 - 0.0
25/03:20pm 10.4 7.9 4.5 67 2.8 SSW 7 13 4 7 1022.9 - 0.0
25/03:10pm 10.4 6.3 4.3 66 2.9 SSW 15 20 8 11 1022.9 - 0.0
25/03:00pm 10.3 4.9 4.4 67 2.8 SSW 22 26 12 14 1022.7 - 0.0
25/02:50pm 10.5 6.0 4.4 66 2.9 SSW 17 22 9 12 1022.6 - 0.0
25/02:40pm 10.7 8.1 4.2 64 3.1 SSW 7 15 4 8 1022.5 - 0.0

Other formats

Comma delimited format used in spreadsheet applications
http://www.bom.gov.au/fwo/IDN60801/IDN60801.99762.axf

JavaScript Object Notation format (JSON) in row-major order
http://www.bom.gov.au/fwo/IDN60801/IDN60801.99762.json

Data quality

Most of these data are generated automatically and are frequently updated. Quality checks on data are not normally performed. It is possible for incorrect values to appear. Refer to information at About Latest Weather Observations and please check the disclaimer before using these data.